createdAt,value
2019-04-14T00:00:55.389Z,46.35
2019-04-14T00:03:46.241Z,43.73
2019-04-14T00:06:15.944Z,48.70
2019-04-14T00:08:45.932Z,43.33
2019-04-14T00:11:15.378Z,44.30
2019-04-14T00:13:45.665Z,46.95
2019-04-14T00:16:16.418Z,46.80
2019-04-14T00:18:46.882Z,48.08
2019-04-14T00:21:17.252Z,45.28
2019-04-14T00:23:47.821Z,45.50
2019-04-14T00:26:31.490Z,47.25
2019-04-14T00:29:02.693Z,45.92
2019-04-14T00:31:32.903Z,44.93
2019-04-14T00:34:05.370Z,43.35
2019-04-14T00:36:43.688Z,44.90
2019-04-14T00:39:21.033Z,46.77
2019-04-14T00:41:58.384Z,46.98
2019-04-14T00:44:40.875Z,47.83
2019-04-14T00:47:12.160Z,44.55
2019-04-14T00:49:41.875Z,50.10
2019-04-14T00:52:12.387Z,49.63
2019-04-14T00:54:42.122Z,45.35
2019-04-14T00:57:11.569Z,47.62
2019-04-14T00:59:42.126Z,48.87
2019-04-14T01:02:12.395Z,49.67
2019-04-14T01:04:42.636Z,49.77
2019-04-14T01:07:13.050Z,50.33
2019-04-14T01:09:42.406Z,50.23
2019-04-14T01:12:12.724Z,50.65
2019-04-14T01:14:43.092Z,51.45
2019-04-14T01:17:13.416Z,51.95
2019-04-14T01:19:43.890Z,49.67
2019-04-14T01:22:14.178Z,49.93
2019-04-14T01:24:44.618Z,55.12
2019-04-14T01:27:14.581Z,53.45
2019-04-14T01:29:44.882Z,52.62
2019-04-14T01:32:15.395Z,52.53
2019-04-14T01:34:45.515Z,51.10
2019-04-14T01:37:15.927Z,52.15
2019-04-14T01:39:46.061Z,52.13
2019-04-14T01:42:15.893Z,52.85
2019-04-14T01:44:45.968Z,54.38
2019-04-14T01:47:15.936Z,55.23
2019-04-14T01:49:46.538Z,54.98
2019-04-14T01:52:23.258Z,53.10
2019-04-14T01:54:54.257Z,52.08
2019-04-14T01:57:43.802Z,52.75
2019-04-14T02:00:31.666Z,52.38
2019-04-14T02:03:01.934Z,51.77
2019-04-14T02:05:32.095Z,49.98
2019-04-14T02:08:02.339Z,54.83
2019-04-14T02:10:32.645Z,49.55
2019-04-14T02:13:02.798Z,52.08
2019-04-14T02:15:33.038Z,52.15
2019-04-14T02:18:03.228Z,55.73
2019-04-14T02:20:33.839Z,57.67
2019-04-14T02:23:03.999Z,53.83
2019-04-14T02:25:33.882Z,54.00
2019-04-14T02:28:04.682Z,54.27
2019-04-14T02:30:41.628Z,54.30
2019-04-14T02:33:40.785Z,54.70
2019-04-14T02:36:05.749Z,53.95
2019-04-14T02:38:40.914Z,55.05
2019-04-14T02:41:11.006Z,53.63
2019-04-14T02:43:39.614Z,59.38
2019-04-14T02:46:04.145Z,51.95
2019-04-14T02:48:44.200Z,51.28
2019-04-14T02:51:05.765Z,57.53
2019-04-14T02:53:44.460Z,54.65
2019-04-14T02:56:18.160Z,58.40
2019-04-14T02:58:50.013Z,58.15
2019-04-14T03:03:43.562Z,57.95
2019-04-14T03:06:13.030Z,53.60
2019-04-14T03:08:51.240Z,53.40
2019-04-14T03:11:20.595Z,58.02
2019-04-14T03:16:27.208Z,56.90
2019-04-14T03:18:55.221Z,57.00
2019-04-14T03:21:34.788Z,56.85
2019-04-14T03:24:03.081Z,54.98
2019-04-14T03:26:41.903Z,59.42
2019-04-14T03:29:21.161Z,59.25
2019-04-14T03:34:34.425Z,57.27
2019-04-14T03:39:24.876Z,56.70
2019-04-14T03:41:52.778Z,59.27
2019-04-14T03:44:32.991Z,59.67
2019-04-14T03:46:59.021Z,53.73
2019-04-14T03:49:32.120Z,56.18
2019-04-14T03:51:57.864Z,54.63
2019-04-14T03:54:28.730Z,58.50
2019-04-14T03:56:51.440Z,54.53
2019-04-14T03:59:21.874Z,62.38
2019-04-14T04:01:52.306Z,55.67
2019-04-14T04:04:22.729Z,54.67
2019-04-14T04:06:53.153Z,58.23
2019-04-14T04:09:25.625Z,57.62
2019-04-14T04:11:56.209Z,59.58
2019-04-14T04:14:26.975Z,55.50
2019-04-14T04:17:14.624Z,58.30
2019-04-14T04:19:46.906Z,57.85
2019-04-14T04:22:19.254Z,56.68
2019-04-14T04:24:56.450Z,59.93
2019-04-14T04:27:37.336Z,58.42
2019-04-14T04:30:10.197Z,57.25
2019-04-14T04:32:47.076Z,54.65
2019-04-14T04:35:18.038Z,55.15
2019-04-14T04:37:52.082Z,56.50
2019-04-14T04:40:24.716Z,57.00
2019-04-14T04:42:54.815Z,61.30
2019-04-14T04:45:25.587Z,62.40
2019-04-14T04:47:55.599Z,61.58
2019-04-14T04:50:26.006Z,55.15
2019-04-14T04:52:56.218Z,59.93
2019-04-14T04:55:26.292Z,65.67
2019-04-14T04:57:56.629Z,57.35
2019-04-14T05:00:26.656Z,59.98
2019-04-14T05:02:57.120Z,59.50
2019-04-14T05:06:03.223Z,58.00
2019-04-14T05:08:34.728Z,60.12
2019-04-14T05:11:06.019Z,57.58
2019-04-14T05:13:36.737Z,58.15
2019-04-14T05:16:06.527Z,59.75
2019-04-14T05:18:35.867Z,61.70
2019-04-14T05:21:06.056Z,57.25
2019-04-14T05:23:36.624Z,56.45
2019-04-14T05:26:07.078Z,54.55
2019-04-14T05:28:37.411Z,55.63
2019-04-14T05:31:07.622Z,55.55
2019-04-14T05:33:38.375Z,58.38
2019-04-14T05:36:08.527Z,55.43
2019-04-14T05:38:38.633Z,54.20
2019-04-14T05:41:09.005Z,57.10
2019-04-14T05:43:48.144Z,52.55
2019-04-14T05:46:09.841Z,55.88
2019-04-14T05:48:40.312Z,56.70
2019-04-14T05:51:10.660Z,58.68
2019-04-14T05:53:41.494Z,56.90
2019-04-14T05:56:12.087Z,52.55
2019-04-14T05:58:42.531Z,58.20
2019-04-14T06:01:13.580Z,57.78
2019-04-14T06:03:43.315Z,56.55
2019-04-14T06:06:12.672Z,54.00
2019-04-14T06:08:42.067Z,53.90
2019-04-14T06:11:11.385Z,54.13
2019-04-14T06:13:40.713Z,55.10
2019-04-14T06:16:10.042Z,53.55
2019-04-14T06:18:39.454Z,52.90
2019-04-14T06:21:08.782Z,50.78
2019-04-14T06:23:38.130Z,51.15
2019-04-14T06:26:07.450Z,49.05
2019-04-14T06:28:36.790Z,49.00
2019-04-14T06:31:26.064Z,49.33
2019-04-14T06:34:05.769Z,48.15
2019-04-14T06:36:51.758Z,51.77
2019-04-14T06:39:22.738Z,47.30
2019-04-14T06:41:52.081Z,47.10
2019-04-14T06:44:21.418Z,47.95
2019-04-14T06:46:50.742Z,49.45
2019-04-14T06:49:20.086Z,53.15
2019-04-14T06:51:49.406Z,44.48
2019-04-14T06:54:18.754Z,50.65
2019-04-14T06:56:48.072Z,47.70
2019-04-14T06:59:17.402Z,44.45
2019-04-14T07:01:46.734Z,47.95
2019-04-14T07:04:16.066Z,46.80
2019-04-14T07:06:45.707Z,44.00
2019-04-14T07:09:15.065Z,44.55
2019-04-14T07:11:44.474Z,42.33
2019-04-14T07:14:14.789Z,42.67
2019-04-14T07:16:44.115Z,41.33
2019-04-14T07:19:13.446Z,43.75
2019-04-14T07:21:42.787Z,37.65
2019-04-14T07:24:12.118Z,33.92
2019-04-14T07:26:41.723Z,39.78
2019-04-14T07:29:11.094Z,38.53
2019-04-14T07:32:00.307Z,40.25
2019-04-14T07:34:37.229Z,35.33
2019-04-14T07:37:19.068Z,33.55
2019-04-14T07:39:52.887Z,34.48
2019-04-14T07:42:41.550Z,34.65
2019-04-14T07:45:12.794Z,29.85
2019-04-14T07:47:43.766Z,31.12
2019-04-14T07:50:17.606Z,30.08
2019-04-14T07:52:51.591Z,31.17
2019-04-14T07:55:25.329Z,31.45
2019-04-14T07:57:58.986Z,28.92
2019-04-14T08:00:45.086Z,29.07
2019-04-14T08:03:28.016Z,30.77
2019-04-14T08:05:57.354Z,28.20
2019-04-14T08:08:26.698Z,27.07
2019-04-14T08:10:57.291Z,27.02
2019-04-14T08:13:26.619Z,26.10
2019-04-14T08:15:55.961Z,26.20
2019-04-14T08:18:25.287Z,25.45
2019-04-14T08:20:54.640Z,25.43
2019-04-14T08:23:24.038Z,26.30
2019-04-14T08:25:53.378Z,25.08
2019-04-14T08:28:22.717Z,26.95
2019-04-14T08:30:52.069Z,24.12
2019-04-14T08:33:21.402Z,24.07
2019-04-14T08:35:50.753Z,26.70
2019-04-14T08:38:20.073Z,24.72
2019-04-14T08:40:49.431Z,23.15
2019-04-14T08:43:24.070Z,24.40
2019-04-14T08:45:57.816Z,20.67
2019-04-14T08:48:47.268Z,18.98
2019-04-14T08:51:27.422Z,19.77
2019-04-14T08:54:00.886Z,20.55
2019-04-14T08:56:40.750Z,18.70
2019-04-14T08:59:14.149Z,18.55
2019-04-14T09:01:57.086Z,18.98
2019-04-14T09:04:36.834Z,17.92
2019-04-14T09:07:07.833Z,19.92
2019-04-14T09:09:41.580Z,20.55
2019-04-14T09:12:18.434Z,16.77
2019-04-14T09:14:56.742Z,16.00
2019-04-14T09:17:19.155Z,18.48
2019-04-14T09:19:48.492Z,17.67
2019-04-14T09:22:17.830Z,18.30
2019-04-14T09:24:47.165Z,17.30
2019-04-14T09:27:16.503Z,19.80
2019-04-14T09:29:45.833Z,15.28
2019-04-14T09:32:15.354Z,16.93
2019-04-14T09:34:45.757Z,18.15
2019-04-14T09:37:15.141Z,14.75
2019-04-14T09:39:44.505Z,19.23
2019-04-14T09:42:13.850Z,20.05
2019-04-14T09:44:43.188Z,16.10
2019-04-14T09:47:12.562Z,14.28
2019-04-14T09:49:42.002Z,16.00
2019-04-14T09:52:11.367Z,19.52
2019-04-14T09:54:40.745Z,15.40
2019-04-14T09:57:10.115Z,16.23
2019-04-14T09:59:39.438Z,14.10
2019-04-14T10:02:08.778Z,16.17
2019-04-14T10:04:38.207Z,15.48
2019-04-14T10:07:07.542Z,15.65
2019-04-14T10:09:36.967Z,15.58
2019-04-14T10:12:06.442Z,15.40
2019-04-14T10:14:35.797Z,16.82
2019-04-14T10:17:05.198Z,14.35
2019-04-14T10:19:34.544Z,19.12
2019-04-14T10:22:03.872Z,13.90
2019-04-14T10:24:33.213Z,14.63
2019-04-14T10:27:03.610Z,14.98
2019-04-14T10:29:32.953Z,14.65
2019-04-14T10:32:02.364Z,16.02
2019-04-14T10:34:31.703Z,17.52
2019-04-14T10:37:01.047Z,13.03
2019-04-14T10:39:30.391Z,13.95
2019-04-14T10:41:59.717Z,14.70
2019-04-14T10:44:29.057Z,14.35
2019-04-14T10:46:58.389Z,13.22
2019-04-14T10:49:27.731Z,16.45
2019-04-14T10:51:57.128Z,13.05
2019-04-14T10:54:26.476Z,15.35
2019-04-14T10:56:55.799Z,12.63
2019-04-14T10:59:25.158Z,12.10
2019-04-14T11:01:54.540Z,12.37
2019-04-14T11:04:23.895Z,14.70
2019-04-14T11:07:03.862Z,12.82
2019-04-14T11:09:33.193Z,13.60
2019-04-14T11:12:02.526Z,16.02
2019-04-14T11:14:31.857Z,16.12
2019-04-14T11:17:01.186Z,12.30
2019-04-14T11:19:30.532Z,16.40
2019-04-14T11:21:59.866Z,13.85
2019-04-14T11:24:29.210Z,12.33
2019-04-14T11:26:58.534Z,18.32
2019-04-14T11:29:27.875Z,15.25
2019-04-14T11:32:07.618Z,14.33
2019-04-14T11:34:38.593Z,12.07
2019-04-14T11:37:15.037Z,14.28
2019-04-14T11:39:45.699Z,15.05
2019-04-14T11:42:15.126Z,14.73
2019-04-14T11:44:44.781Z,13.60
2019-04-14T11:47:16.239Z,12.93
2019-04-14T11:49:45.250Z,10.15
2019-04-14T11:52:14.582Z,12.98
2019-04-14T11:54:43.926Z,12.90
2019-04-14T11:57:13.251Z,13.75
2019-04-14T11:59:53.443Z,12.90
2019-04-14T12:02:26.858Z,12.45
2019-04-14T12:05:06.379Z,13.00
2019-04-14T12:07:49.334Z,15.20
2019-04-14T12:10:18.947Z,15.50
2019-04-14T12:12:48.274Z,14.73
2019-04-14T12:15:17.635Z,14.23
2019-04-14T12:17:46.971Z,13.88
2019-04-14T12:20:16.373Z,13.18
2019-04-14T12:22:45.717Z,13.98
2019-04-14T12:25:15.037Z,14.03
2019-04-14T12:27:44.412Z,11.68
2019-04-14T12:30:13.926Z,13.03
2019-04-14T12:32:43.347Z,13.70
2019-04-14T12:35:13.105Z,17.37
2019-04-14T12:37:42.452Z,16.52
2019-04-14T12:40:12.041Z,14.38
2019-04-14T12:42:46.153Z,14.25
2019-04-14T12:45:33.606Z,15.05
2019-04-14T12:48:13.581Z,13.55
2019-04-14T12:50:44.546Z,12.80
2019-04-14T12:53:13.889Z,13.90
2019-04-14T12:55:43.213Z,18.55
2019-04-14T12:58:14.208Z,15.95
2019-04-14T13:00:45.169Z,12.28
2019-04-14T13:03:14.555Z,15.00
2019-04-14T13:05:44.020Z,14.30
2019-04-14T13:08:13.372Z,12.82
2019-04-14T13:10:42.698Z,14.50
2019-04-14T13:13:12.039Z,13.72
2019-04-14T13:15:41.370Z,16.87
2019-04-14T13:18:10.786Z,13.13
2019-04-14T13:20:40.184Z,14.33
2019-04-14T13:23:09.527Z,13.15
2019-04-14T13:25:38.855Z,13.15
2019-04-14T13:28:09.168Z,15.00
2019-04-14T13:30:40.127Z,12.18
2019-04-14T13:33:09.470Z,14.28
2019-04-14T13:35:38.849Z,14.28
2019-04-14T13:38:08.214Z,14.00
2019-04-14T13:40:37.543Z,12.55
2019-04-14T13:43:06.890Z,18.55
2019-04-14T13:45:36.218Z,15.93
2019-04-14T13:48:05.554Z,14.80
2019-04-14T13:50:34.869Z,14.93
2019-04-14T13:53:05.131Z,15.35
2019-04-14T13:55:34.469Z,18.55
2019-04-14T13:58:03.885Z,15.90
2019-04-14T14:00:33.352Z,14.55
2019-04-14T14:03:02.767Z,15.98
2019-04-14T14:05:32.094Z,16.93
2019-04-14T14:08:01.454Z,15.35
2019-04-14T14:10:31.953Z,15.58
2019-04-14T14:13:19.698Z,18.17
2019-04-14T14:16:06.708Z,18.52
2019-04-14T14:18:40.094Z,19.62
2019-04-14T14:21:13.994Z,17.25
2019-04-14T14:23:53.943Z,20.37
2019-04-14T14:26:33.926Z,12.68
2019-04-14T14:29:03.270Z,16.40
2019-04-14T14:31:32.609Z,16.75
2019-04-14T14:34:01.997Z,17.65
2019-04-14T14:36:31.403Z,16.10
2019-04-14T14:39:00.734Z,14.00
2019-04-14T14:41:31.690Z,15.38
2019-04-14T14:44:01.046Z,11.40
2019-04-14T14:46:37.720Z,12.10
2019-04-14T14:49:14.493Z,16.02
2019-04-14T14:51:57.701Z,12.55
2019-04-14T14:54:28.110Z,14.15
2019-04-14T14:56:57.511Z,18.82
2019-04-14T14:59:26.844Z,12.47
2019-04-14T15:01:56.174Z,12.13
2019-04-14T15:04:25.512Z,11.22
2019-04-14T15:06:54.826Z,9.78
2019-04-14T15:09:24.171Z,10.40
2019-04-14T15:11:53.514Z,12.40
2019-04-14T15:14:22.849Z,9.63
2019-04-14T15:16:52.242Z,11.18
2019-04-14T15:19:21.851Z,8.98
2019-04-14T15:21:51.309Z,8.93
2019-04-14T15:24:20.640Z,8.80
2019-04-14T15:26:49.981Z,9.50
2019-04-14T15:29:19.365Z,8.08
2019-04-14T15:31:48.722Z,9.83
2019-04-14T15:34:18.061Z,8.65
2019-04-14T15:36:47.390Z,9.23
2019-04-14T15:39:16.713Z,7.30
2019-04-14T15:41:46.076Z,9.35
2019-04-14T15:44:15.503Z,8.68
2019-04-14T15:46:45.903Z,8.93
2019-04-14T15:49:15.216Z,10.30
2019-04-14T15:51:44.555Z,11.73
2019-04-14T15:54:13.877Z,12.40
2019-04-14T15:56:44.911Z,8.35
2019-04-14T15:59:18.602Z,12.30
2019-04-14T16:01:49.662Z,10.20
2019-04-14T16:04:20.860Z,10.60
2019-04-14T16:06:54.621Z,10.68
2019-04-14T16:09:43.838Z,11.60
2019-04-14T16:12:14.813Z,10.13
2019-04-14T16:14:57.979Z,11.50
2019-04-14T16:17:40.976Z,10.28
2019-04-14T16:20:17.672Z,11.57
2019-04-14T16:22:47.082Z,12.25
2019-04-14T16:25:16.456Z,14.33
2019-04-14T16:27:47.502Z,10.28
2019-04-14T16:30:31.131Z,12.20
2019-04-14T16:33:02.201Z,12.93
2019-04-14T16:35:34.307Z,12.53
2019-04-14T16:38:03.749Z,12.53
2019-04-14T16:40:33.250Z,11.57
2019-04-14T16:43:02.602Z,12.58
2019-04-14T16:45:32.046Z,11.78
2019-04-14T16:48:01.395Z,14.50
2019-04-14T16:50:30.780Z,11.85
2019-04-14T16:53:04.423Z,13.53
2019-04-14T16:55:35.386Z,12.97
2019-04-14T16:58:21.682Z,12.58
2019-04-14T17:01:01.712Z,12.65
2019-04-14T17:03:32.231Z,11.68
2019-04-14T17:06:01.561Z,9.63
2019-04-14T17:08:31.978Z,10.50
2019-04-14T17:11:01.296Z,9.10
2019-04-14T17:13:32.540Z,11.22
2019-04-14T17:16:20.035Z,9.50
2019-04-14T17:19:05.771Z,9.75
2019-04-14T17:21:42.638Z,8.93
2019-04-14T17:24:17.011Z,9.23
2019-04-14T17:29:39.891Z,8.93
2019-04-14T17:32:16.816Z,10.15
2019-04-14T17:35:01.110Z,9.30
2019-04-14T17:37:50.043Z,11.20
2019-04-14T17:40:26.911Z,11.50
2019-04-14T17:43:09.735Z,10.32
2019-04-14T17:45:50.732Z,10.48
2019-04-14T17:48:41.513Z,10.58
2019-04-14T17:51:12.486Z,10.03
2019-04-14T17:53:43.458Z,9.88
2019-04-14T17:56:20.418Z,10.03
2019-04-14T17:59:09.798Z,11.12
2019-04-14T18:01:41.110Z,9.63
2019-04-14T18:04:30.417Z,9.75
2019-04-14T18:07:01.802Z,11.00
2019-04-14T18:09:50.758Z,9.40
2019-04-14T18:12:24.750Z,9.90
2019-04-14T18:14:55.745Z,8.95
2019-04-14T18:17:26.705Z,8.55
2019-04-14T18:20:03.795Z,8.38
2019-04-14T18:22:33.133Z,9.70
2019-04-14T18:25:02.573Z,9.00
2019-04-14T18:27:33.703Z,8.45
2019-04-14T18:30:21.267Z,7.78
2019-04-14T18:32:55.150Z,6.50
2019-04-14T18:35:31.568Z,8.28
2019-04-14T18:38:08.219Z,7.00
2019-04-14T18:40:42.125Z,8.33
2019-04-14T18:43:29.258Z,11.85
2019-04-14T18:46:00.241Z,7.75
2019-04-14T18:48:33.670Z,10.68
2019-04-14T18:51:04.637Z,6.20
2019-04-14T18:53:52.102Z,7.08
2019-04-14T18:56:23.089Z,7.55
2019-04-14T18:58:56.750Z,7.15
2019-04-14T19:01:27.794Z,6.87
2019-04-14T19:03:57.197Z,7.45
2019-04-14T19:06:26.525Z,7.25
2019-04-14T19:08:55.860Z,6.22
2019-04-14T19:11:29.346Z,7.35
2019-04-14T19:14:00.317Z,7.42
2019-04-14T19:16:40.528Z,6.37
2019-04-14T19:19:11.165Z,6.17
2019-04-14T19:21:40.486Z,7.17
2019-04-14T19:24:09.811Z,6.55
2019-04-14T19:26:39.199Z,6.45
2019-04-14T19:29:08.578Z,6.78
2019-04-14T19:31:37.926Z,6.28
2019-04-14T19:34:07.255Z,7.05
2019-04-14T19:36:36.663Z,6.47
2019-04-14T19:39:09.986Z,6.70
2019-04-14T19:41:39.849Z,6.50
2019-04-14T19:44:09.203Z,6.70
2019-04-14T19:46:38.529Z,7.17
2019-04-14T19:49:07.850Z,6.87
2019-04-14T19:51:37.174Z,6.65
2019-04-14T19:54:06.493Z,6.30
2019-04-14T19:56:35.906Z,6.30
2019-04-14T19:59:05.226Z,6.12
2019-04-14T20:01:34.549Z,6.50
2019-04-14T20:04:03.861Z,5.28
2019-04-14T20:06:33.226Z,6.45
2019-04-14T20:09:02.906Z,5.75
2019-04-14T20:11:33.933Z,5.72
2019-04-14T20:14:03.317Z,5.62
2019-04-14T20:16:37.232Z,5.72
2019-04-14T20:19:17.481Z,5.60
2019-04-14T20:21:57.518Z,5.45
2019-04-14T20:24:36.986Z,5.15
2019-04-14T20:27:10.646Z,6.10
2019-04-14T20:29:50.302Z,5.28
2019-04-14T20:32:27.010Z,5.42
2019-04-14T20:34:56.398Z,7.20
2019-04-14T20:37:25.725Z,7.75
2019-04-14T20:39:55.042Z,5.25
2019-04-14T20:42:24.371Z,5.05
2019-04-14T20:44:53.684Z,5.25
2019-04-14T20:47:23.015Z,5.22
2019-04-14T20:49:52.318Z,6.25
2019-04-14T20:52:22.617Z,5.45
2019-04-14T20:54:51.954Z,7.05
2019-04-14T20:57:21.274Z,5.05
2019-04-14T20:59:50.588Z,5.12
2019-04-14T21:02:30.353Z,6.47
2019-04-14T21:05:17.921Z,5.03
2019-04-14T21:07:51.567Z,5.97
2019-04-14T21:10:22.528Z,4.72
2019-04-14T21:12:53.484Z,5.05
2019-04-14T21:15:30.302Z,5.33
2019-04-14T21:18:01.281Z,5.08
2019-04-14T21:20:37.722Z,5.25
2019-04-14T21:23:08.685Z,4.65
2019-04-14T21:25:39.646Z,4.97
2019-04-14T21:28:13.691Z,5.83
2019-04-14T21:30:47.417Z,4.83
2019-04-14T21:33:33.475Z,4.87
2019-04-14T21:36:13.303Z,4.10
2019-04-14T21:38:53.133Z,4.47
2019-04-14T21:41:24.078Z,4.80
2019-04-14T21:43:53.482Z,4.00
2019-04-14T21:46:22.870Z,6.25
2019-04-14T21:48:52.197Z,4.45
2019-04-14T21:51:23.147Z,4.53
2019-04-14T21:53:52.479Z,4.28
2019-04-14T21:56:23.373Z,4.53
2019-04-14T21:59:12.666Z,4.08
2019-04-14T22:01:58.517Z,4.42
2019-04-14T22:04:41.337Z,4.33
2019-04-14T22:07:15.062Z,4.03
2019-04-14T22:09:44.450Z,6.70
2019-04-14T22:12:13.841Z,4.15
2019-04-14T22:14:43.177Z,4.17
2019-04-14T22:17:12.490Z,3.98
2019-04-14T22:19:41.824Z,4.37
2019-04-14T22:22:11.139Z,4.70
2019-04-14T22:24:40.457Z,4.62
2019-04-14T22:27:09.783Z,4.20
2019-04-14T22:29:39.173Z,3.80
2019-04-14T22:32:08.473Z,4.20
2019-04-14T22:34:37.810Z,4.58
2019-04-14T22:37:07.334Z,4.50
2019-04-14T22:39:39.109Z,4.53
2019-04-14T22:42:07.685Z,4.25
2019-04-14T22:44:37.019Z,4.45
2019-04-14T22:47:06.327Z,5.65
2019-04-14T22:49:35.654Z,4.65
2019-04-14T22:52:05.144Z,4.30
2019-04-14T22:54:34.463Z,4.55
2019-04-14T22:57:04.824Z,4.50
2019-04-14T22:59:34.155Z,4.85
2019-04-14T23:02:07.839Z,4.70
2019-04-14T23:04:50.511Z,4.70
2019-04-14T23:07:27.545Z,4.97
2019-04-14T23:09:58.529Z,5.10
2019-04-14T23:12:29.566Z,5.25
2019-04-14T23:15:03.421Z,5.10
2019-04-14T23:17:35.437Z,5.30
2019-04-14T23:20:17.482Z,5.03
2019-04-14T23:22:51.178Z,4.95
2019-04-14T23:25:20.506Z,4.80
2019-04-14T23:27:49.826Z,4.65
2019-04-14T23:30:19.154Z,5.05
2019-04-14T23:32:48.543Z,5.20
2019-04-14T23:35:17.872Z,4.75
2019-04-14T23:37:47.183Z,5.55
2019-04-14T23:40:16.650Z,4.92
2019-04-14T23:42:45.975Z,4.53
2019-04-14T23:45:15.479Z,5.12
2019-04-14T23:47:44.864Z,5.12
2019-04-14T23:50:14.343Z,4.60
2019-04-14T23:52:43.664Z,5.17
2019-04-14T23:55:13.150Z,4.60
2019-04-14T23:57:42.467Z,5.42
